Time;durP1;ratioP1;P1;durP2;ratioP2;P2;SDS_P1;SDS_P2;PMS_P1;PMS_P2;Temp;Humidity;BMP_temperature;BMP_pressure;BME280_temperature;BME280_humidity;BME280_pressure;Samples;Min_cycle;Max_cycle;Signal;HPM_P1;HPM_P2
2023/07/20 00:02:24;;;;;;;4.75;1.98;;;18.50;55.70;;;;;;5081746;28;20036;-70
2023/07/20 00:04:50;;;;;;;4.50;2.60;;;18.50;55.80;;;;;;5082086;28;20111;-70
2023/07/20 00:07:16;;;;;;;5.50;2.30;;;18.50;55.90;;;;;;5082963;28;20118;-70
2023/07/20 00:09:42;;;;;;;4.35;2.08;;;18.40;55.80;;;;;;5086183;28;20564;-69
2023/07/20 00:12:11;;;;;;;4.28;2.97;;;18.30;55.70;;;;;;5082400;28;20040;-72
2023/07/20 00:14:37;;;;;;;2.65;1.92;;;18.30;55.90;;;;;;5086714;28;20039;-68
2023/07/20 00:17:04;;;;;;;4.03;1.85;;;18.20;55.80;;;;;;5083982;28;20036;-68
2023/07/20 00:19:32;;;;;;;2.80;1.77;;;18.20;55.90;;;;;;5083045;28;20039;-67
2023/07/20 00:22:01;;;;;;;3.92;1.92;;;18.10;55.80;;;;;;5084179;28;20028;-79
2023/07/20 00:24:27;;;;;;;2.80;1.92;;;18.10;56.00;;;;;;5085502;28;20035;-68
2023/07/20 00:26:54;;;;;;;5.20;2.10;;;18.00;55.90;;;;;;5088325;28;20499;-72
2023/07/20 00:29:20;;;;;;;2.55;1.40;;;18.00;56.00;;;;;;5076519;28;20028;-72
2023/07/20 00:31:47;;;;;;;3.90;2.35;;;18.00;56.00;;;;;;5085330;28;20523;-68
2023/07/20 00:34:13;;;;;;;2.47;1.63;;;17.90;55.90;;;;;;5084379;28;20055;-69
2023/07/20 00:36:41;;;;;;;2.78;1.67;;;17.90;56.10;;;;;;5084513;28;20123;-74
2023/07/20 00:39:07;;;;;;;2.63;1.65;;;17.80;55.90;;;;;;5083754;28;20035;-68
2023/07/20 00:41:35;;;;;;;2.30;1.40;;;17.80;55.90;;;;;;5083984;28;20101;-69
2023/07/20 00:44:06;;;;;;;3.03;1.85;;;17.70;55.80;;;;;;5065881;28;20119;-70
2023/07/20 00:46:38;;;;;;;5.25;1.73;;;17.70;55.80;;;;;;5083833;28;20067;-68
2023/07/20 00:49:06;;;;;;;2.83;1.60;;;17.60;55.70;;;;;;5083174;28;20028;-68
2023/07/20 00:51:33;;;;;;;2.25;1.17;;;17.50;55.50;;;;;;5082781;28;20033;-68
2023/07/20 00:53:59;;;;;;;3.10;1.95;;;17.50;55.60;;;;;;5082292;28;20039;-67
2023/07/20 00:56:25;;;;;;;1.90;1.30;;;17.50;55.60;;;;;;5090352;28;20044;-67
2023/07/20 00:58:52;;;;;;;2.72;1.50;;;17.40;55.50;;;;;;5080248;28;20036;-68
2023/07/20 01:01:19;;;;;;;3.63;1.50;;;17.40;55.60;;;;;;5082645;28;20031;-67
2023/07/20 01:03:48;;;;;;;2.53;1.40;;;17.30;55.50;;;;;;5084350;28;20039;-67
2023/07/20 01:06:55;;;;;;;1.60;1.50;;;17.30;55.60;;;;;;5078043;28;20047;-67
2023/07/20 01:09:40;;;;;;;3.60;1.60;;;17.20;55.60;;;;;;5083426;28;20028;-68
2023/07/20 01:12:26;;;;;;;3.75;1.50;;;17.20;55.50;;;;;;5095435;27;20032;-69
2023/07/20 01:14:53;;;;;;;1.73;1.27;;;17.10;55.40;;;;;;5098386;27;20024;-68
2023/07/20 01:17:19;;;;;;;1.85;1.75;;;17.10;56.00;;;;;;5076920;28;20079;-70
2023/07/20 01:19:46;;;;;;;2.42;1.48;;;17.00;55.30;;;;;;5081259;28;20093;-74
2023/07/20 01:22:18;;;;;;;5.07;1.60;;;17.00;55.30;;;;;;5085939;28;20043;-70
2023/07/20 01:25:09;;;;;;;1.70;1.20;;;17.00;55.40;;;;;;5080219;28;20032;-68
2023/07/20 01:27:54;;;;;;;4.57;1.58;;;16.90;55.20;;;;;;5094469;28;20042;-69
2023/07/20 01:30:39;;;;;;;1.90;1.35;;;16.90;55.30;;;;;;5090766;27;20036;-71
2023/07/20 01:33:11;;;;;;;2.05;1.17;;;16.80;55.20;;;;;;5081630;28;20441;-71
2023/07/20 01:35:39;;;;;;;2.78;1.40;;;16.70;55.00;;;;;;5082141;28;20054;-69
2023/07/20 01:38:07;;;;;;;1.50;1.30;;;16.70;55.10;;;;;;5075227;28;20140;-71
2023/07/20 01:40:35;;;;;;;1.42;1.33;;;16.60;55.00;;;;;;5083720;28;20453;-68
2023/07/20 01:43:03;;;;;;;2.58;1.20;;;16.60;55.10;;;;;;5077041;28;20042;-68
2023/07/20 01:45:29;;;;;;;2.80;1.20;;;16.50;55.00;;;;;;5080491;28;20395;-70
2023/07/20 01:48:00;;;;;;;1.48;1.38;;;16.50;55.10;;;;;;5080483;28;20089;-69
2023/07/20 01:50:26;;;;;;;2.22;1.27;;;16.40;55.00;;;;;;5069483;28;20063;-71
2023/07/20 01:52:53;;;;;;;2.97;1.60;;;16.40;55.10;;;;;;5085724;28;20055;-72
2023/07/20 01:55:19;;;;;;;1.50;1.20;;;16.40;55.10;;;;;;5092311;28;20051;-77
2023/07/20 01:57:49;;;;;;;2.05;1.10;;;16.30;55.00;;;;;;5083465;28;20024;-76
2023/07/20 02:00:16;;;;;;;1.52;1.40;;;16.30;55.10;;;;;;5084565;28;20036;-72
2023/07/20 02:03:02;;;;;;;1.88;1.35;;;16.30;55.20;;;;;;5087476;28;20028;-75
2023/07/20 02:05:29;;;;;;;1.35;1.25;;;16.20;55.10;;;;;;5090872;27;20130;-72
2023/07/20 02:07:55;;;;;;;1.83;1.38;;;16.20;55.10;;;;;;5088676;28;20039;-72
2023/07/20 02:10:22;;;;;;;1.52;1.20;;;16.20;55.10;;;;;;5083421;28;20589;-71
2023/07/20 02:12:48;;;;;;;1.95;1.30;;;16.10;55.00;;;;;;5086975;28;20036;-74
2023/07/20 02:15:16;;;;;;;1.30;1.20;;;16.10;55.00;;;;;;5087556;28;20558;-74
2023/07/20 02:17:43;;;;;;;1.45;1.10;;;16.10;55.10;;;;;;5069898;28;20604;-73
2023/07/20 02:20:10;;;;;;;1.20;1.10;;;16.00;54.90;;;;;;5087452;28;20094;-71
2023/07/20 02:22:37;;;;;;;1.50;1.10;;;16.00;55.00;;;;;;5085052;28;20674;-71
2023/07/20 02:25:10;;;;;;;1.65;1.38;;;15.90;55.00;;;;;;5084786;28;20048;-70
2023/07/20 02:27:37;;;;;;;1.70;1.38;;;15.90;54.90;;;;;;5097226;28;20035;-72
2023/07/20 02:30:04;;;;;;;1.20;1.10;;;15.80;54.80;;;;;;5084086;28;20133;-72
2023/07/20 02:32:31;;;;;;;1.58;1.30;;;15.80;54.90;;;;;;5086354;28;20662;-69
2023/07/20 02:34:58;;;;;;;2.38;1.40;;;15.80;55.00;;;;;;5085108;28;20048;-72
2023/07/20 02:37:25;;;;;;;4.20;2.10;;;15.70;54.90;;;;;;5087363;28;20036;-74
2023/07/20 02:39:51;;;;;;;1.58;1.42;;;15.70;55.00;;;;;;5082926;28;20412;-74
2023/07/20 02:42:17;;;;;;;1.17;1.08;;;15.70;55.10;;;;;;5079252;28;20636;-72
2023/07/20 02:44:43;;;;;;;1.40;1.30;;;15.60;55.00;;;;;;5083740;28;20021;-74
2023/07/20 02:47:09;;;;;;;3.35;1.80;;;15.60;55.00;;;;;;5084696;28;20114;-75
2023/07/20 02:49:35;;;;;;;1.38;1.20;;;15.60;55.10;;;;;;5082381;28;20040;-76
2023/07/20 02:52:01;;;;;;;4.20;1.45;;;15.50;54.90;;;;;;5080550;28;20080;-72
2023/07/20 02:54:29;;;;;;;2.17;1.55;;;15.50;55.00;;;;;;5080536;28;20028;-72
2023/07/20 02:56:56;;;;;;;2.00;1.35;;;15.40;54.90;;;;;;5082264;28;20057;-73
2023/07/20 02:59:22;;;;;;;2.47;1.23;;;15.40;55.00;;;;;;5086513;28;20028;-70
2023/07/20 03:01:48;;;;;;;3.15;1.67;;;15.40;55.10;;;;;;5086803;28;20143;-70
2023/07/20 03:04:15;;;;;;;1.45;1.13;;;15.30;55.00;;;;;;5080134;28;20037;-71
2023/07/20 03:06:41;;;;;;;1.13;1.13;;;15.30;55.10;;;;;;5085660;28;20077;-70
2023/07/20 03:09:07;;;;;;;2.10;1.30;;;15.30;55.10;;;;;;5083146;28;20713;-69
2023/07/20 03:11:34;;;;;;;2.72;1.20;;;15.20;55.00;;;;;;5083724;28;20144;-76
2023/07/20 03:14:00;;;;;;;2.70;1.30;;;15.20;55.10;;;;;;5086506;28;20090;-71
2023/07/20 03:16:26;;;;;;;1.60;1.30;;;15.20;55.10;;;;;;5094340;28;20092;-67
2023/07/20 03:18:53;;;;;;;1.55;1.30;;;15.10;55.00;;;;;;5095239;28;20035;-69
2023/07/20 03:21:21;;;;;;;2.60;1.35;;;15.10;55.10;;;;;;5085549;28;20489;-72
2023/07/20 03:23:47;;;;;;;2.35;1.30;;;15.10;55.20;;;;;;5092748;28;20177;-69
2023/07/20 03:26:13;;;;;;;1.60;1.50;;;15.10;55.20;;;;;;5098287;28;20028;-71
2023/07/20 03:28:39;;;;;;;2.55;1.23;;;15.00;55.20;;;;;;5092338;28;20048;-71
2023/07/20 03:31:06;;;;;;;3.30;1.45;;;15.00;55.20;;;;;;5086144;28;20092;-72
2023/07/20 03:33:35;;;;;;;3.58;2.05;;;15.00;55.30;;;;;;5082967;28;20128;-71
2023/07/20 03:36:02;;;;;;;2.70;1.35;;;14.90;55.20;;;;;;5088590;28;20235;-72
2023/07/20 03:38:30;;;;;;;2.95;1.63;;;14.90;55.20;;;;;;5086475;28;20151;-79
2023/07/20 03:40:59;;;;;;;1.45;1.00;;;14.80;55.10;;;;;;5086665;28;20046;-75
2023/07/20 03:43:28;;;;;;;1.40;1.08;;;14.90;55.40;;;;;;5075643;28;20028;-70
2023/07/20 03:45:56;;;;;;;5.00;1.45;;;14.80;55.20;;;;;;5081143;28;20047;-70
2023/07/20 03:48:23;;;;;;;2.47;1.35;;;14.80;55.30;;;;;;5070993;28;20035;-75
2023/07/20 03:50:51;;;;;;;1.90;1.30;;;14.80;55.40;;;;;;5083050;28;20028;-81
2023/07/20 03:53:19;;;;;;;2.03;1.27;;;14.70;55.20;;;;;;5084602;28;20491;-73
2023/07/20 03:55:49;;;;;;;3.33;1.60;;;14.70;55.30;;;;;;5083514;28;20032;-69
2023/07/20 03:58:16;;;;;;;2.20;1.30;;;14.60;55.20;;;;;;5074772;28;20036;-69
2023/07/20 04:00:47;;;;;;;3.00;1.90;;;14.60;55.30;;;;;;5083984;28;20047;-71
2023/07/20 04:03:14;;;;;;;2.38;2.00;;;14.60;55.40;;;;;;5082163;28;20028;-68
2023/07/20 04:05:40;;;;;;;1.48;1.35;;;14.60;55.50;;;;;;5082856;28;20059;-71
2023/07/20 04:08:06;;;;;;;1.83;1.52;;;14.50;55.30;;;;;;5080450;28;20067;-73
2023/07/20 04:10:32;;;;;;;4.10;1.40;;;14.50;55.40;;;;;;5083092;28;20064;-71
2023/07/20 04:12:58;;;;;;;3.40;1.60;;;14.50;55.50;;;;;;5081179;28;20040;-70
2023/07/20 04:15:24;;;;;;;1.80;1.67;;;14.50;55.60;;;;;;5082858;28;20093;-71
2023/07/20 04:17:50;;;;;;;2.75;1.48;;;14.40;55.50;;;;;;5084167;28;20112;-70
2023/07/20 04:20:17;;;;;;;2.45;1.30;;;14.40;55.50;;;;;;5078960;28;20568;-70
2023/07/20 04:22:44;;;;;;;3.47;1.95;;;14.40;55.70;;;;;;5089975;28;20055;-76
2023/07/20 04:25:13;;;;;;;1.90;1.40;;;14.40;55.60;;;;;;5101278;28;20031;-71
2023/07/20 04:27:40;;;;;;;3.47;1.70;;;14.30;55.40;;;;;;5101144;28;20046;-70
2023/07/20 04:30:08;;;;;;;4.07;1.58;;;14.30;55.50;;;;;;5086620;28;20477;-68
2023/07/20 04:32:35;;;;;;;3.83;1.90;;;14.30;55.60;;;;;;5089872;28;20028;-73
2023/07/20 04:35:07;;;;;;;4.25;1.42;;;14.30;55.60;;;;;;5094934;28;20040;-72
2023/07/20 04:37:35;;;;;;;4.40;1.50;;;14.20;55.50;;;;;;5097088;28;20074;-68
2023/07/20 04:40:03;;;;;;;4.85;1.60;;;14.20;55.50;;;;;;5065742;28;20422;-71
2023/07/20 04:42:29;;;;;;;4.95;1.58;;;14.20;55.50;;;;;;5077599;28;20106;-69
2023/07/20 04:44:56;;;;;;;6.97;1.63;;;14.20;55.60;;;;;;5080289;28;20051;-70
2023/07/20 04:47:23;;;;;;;2.45;1.52;;;14.20;55.70;;;;;;5076920;28;20633;-72
2023/07/20 04:49:51;;;;;;;2.20;1.50;;;14.20;55.70;;;;;;5076460;28;20031;-70
2023/07/20 04:52:17;;;;;;;3.10;1.60;;;14.20;55.80;;;;;;5082374;28;20071;-68
2023/07/20 04:54:43;;;;;;;2.85;1.55;;;14.20;55.80;;;;;;5080396;28;20501;-69
2023/07/20 04:57:12;;;;;;;4.30;2.08;;;14.20;55.80;;;;;;5078824;28;20085;-69
2023/07/20 04:59:44;;;;;;;1.58;1.40;;;14.20;55.80;;;;;;5068301;28;20032;-73
2023/07/20 05:02:10;;;;;;;3.92;1.50;;;14.20;55.80;;;;;;5084944;28;20097;-75
2023/07/20 05:04:37;;;;;;;2.53;1.73;;;14.20;55.80;;;;;;5081439;28;20490;-72
2023/07/20 05:07:03;;;;;;;2.15;1.30;;;14.20;55.80;;;;;;5079834;28;20041;-70
2023/07/20 05:09:29;;;;;;;2.20;1.40;;;14.20;55.80;;;;;;5092720;27;20032;-72
2023/07/20 05:11:55;;;;;;;1.60;1.50;;;14.20;55.90;;;;;;5067985;28;20024;-72
2023/07/20 05:14:22;;;;;;;1.83;1.58;;;14.20;55.90;;;;;;5082628;28;20032;-71
2023/07/20 05:16:54;;;;;;;2.10;1.70;;;14.30;56.10;;;;;;5064002;28;20128;-70
2023/07/20 05:19:20;;;;;;;3.08;1.33;;;14.30;56.20;;;;;;5079553;28;20624;-71
2023/07/20 05:21:46;;;;;;;1.75;1.20;;;14.30;56.20;;;;;;5083350;28;20807;-68
2023/07/20 05:24:12;;;;;;;4.38;1.50;;;14.30;56.20;;;;;;5061916;28;20119;-68
2023/07/20 05:26:38;;;;;;;3.78;2.47;;;14.30;56.30;;;;;;5087697;28;20028;-70
2023/07/20 05:29:05;;;;;;;1.92;1.48;;;14.40;56.50;;;;;;5068883;28;20043;-73
2023/07/20 05:31:31;;;;;;;1.73;1.20;;;14.40;56.50;;;;;;5082473;28;20032;-69
2023/07/20 05:33:57;;;;;;;2.60;1.80;;;14.40;56.50;;;;;;5072270;28;20139;-71
2023/07/20 05:36:24;;;;;;;2.72;1.55;;;14.50;56.70;;;;;;5076793;28;20100;-70
2023/07/20 05:38:51;;;;;;;2.83;1.23;;;14.60;57.40;;;;;;5071150;28;20141;-73
2023/07/20 05:41:17;;;;;;;2.47;1.50;;;14.60;56.80;;;;;;5069841;28;20059;-71
2023/07/20 05:43:43;;;;;;;1.73;1.40;;;14.70;56.90;;;;;;5079854;28;20033;-69
2023/07/20 05:46:09;;;;;;;1.98;1.77;;;14.70;56.90;;;;;;5083378;28;20047;-72
2023/07/20 05:48:38;;;;;;;1.83;1.17;;;14.80;57.00;;;;;;5077873;28;20642;-70
2023/07/20 05:51:05;;;;;;;2.63;1.45;;;14.80;57.00;;;;;;5074406;28;20429;-70
2023/07/20 05:53:31;;;;;;;3.13;2.20;;;14.90;57.20;;;;;;5078274;28;20412;-71
2023/07/20 05:55:57;;;;;;;3.90;1.95;;;14.90;57.50;;;;;;5080164;28;20028;-69
2023/07/20 05:58:24;;;;;;;7.50;3.15;;;15.10;58.80;;;;;;5074987;28;20119;-70
2023/07/20 06:00:50;;;;;;;4.25;1.55;;;15.20;59.60;;;;;;5079580;28;20082;-69
2023/07/20 06:03:17;;;;;;;3.15;1.95;;;15.40;60.30;;;;;;5077792;28;20036;-70
2023/07/20 06:05:43;;;;;;;4.00;1.70;;;15.60;60.70;;;;;;5077325;28;20196;-69
2023/07/20 06:08:10;;;;;;;2.95;1.48;;;15.80;61.10;;;;;;5079265;28;20035;-70
2023/07/20 06:10:36;;;;;;;2.78;1.80;;;16.10;61.50;;;;;;5080774;28;20845;-71
2023/07/20 06:13:02;;;;;;;4.38;1.73;;;16.20;61.40;;;;;;5077416;28;20079;-71
2023/07/20 06:15:34;;;;;;;2.70;1.52;;;16.40;61.60;;;;;;5077262;28;20055;-70
2023/07/20 06:18:01;;;;;;;3.75;1.73;;;16.60;61.90;;;;;;5081197;28;20039;-73
2023/07/20 06:20:30;;;;;;;1.55;1.35;;;16.80;61.90;;;;;;5077884;28;20395;-72
2023/07/20 06:22:56;;;;;;;2.00;1.35;;;16.90;61.90;;;;;;5082358;28;20060;-68
2023/07/20 06:25:22;;;;;;;2.72;1.55;;;17.10;62.20;;;;;;5062912;28;20089;-74
2023/07/20 06:27:53;;;;;;;1.60;1.50;;;17.20;62.20;;;;;;5083105;28;20043;-71
2023/07/20 06:30:20;;;;;;;3.17;1.70;;;17.30;62.30;;;;;;5079971;28;20059;-73
2023/07/20 06:32:46;;;;;;;1.98;1.80;;;17.50;62.40;;;;;;5079077;28;20094;-74
2023/07/20 06:35:12;;;;;;;2.70;1.33;;;17.70;62.50;;;;;;5075233;28;20066;-73
2023/07/20 06:37:39;;;;;;;2.95;1.50;;;17.90;62.40;;;;;;5079302;28;20040;-70
2023/07/20 06:40:08;;;;;;;2.67;1.70;;;18.30;62.20;;;;;;5076625;28;20361;-71
2023/07/20 06:42:35;;;;;;;2.30;1.60;;;18.80;62.00;;;;;;5081402;28;20710;-72
2023/07/20 06:45:01;;;;;;;1.83;1.60;;;19.20;61.30;;;;;;5074036;28;20027;-70
2023/07/20 06:47:28;;;;;;;1.83;1.40;;;19.70;60.90;;;;;;5085301;28;20055;-71
2023/07/20 06:49:54;;;;;;;3.45;1.60;;;20.20;60.60;;;;;;5085707;28;20035;-70
2023/07/20 06:52:20;;;;;;;1.40;1.30;;;20.70;60.20;;;;;;5091664;28;20044;-76
2023/07/20 06:54:47;;;;;;;3.35;1.58;;;21.10;59.40;;;;;;5093634;28;20019;-74
2023/07/20 06:57:13;;;;;;;2.03;1.20;;;21.50;59.20;;;;;;5080711;28;20043;-77
2023/07/20 06:59:40;;;;;;;1.35;1.25;;;21.70;58.90;;;;;;5083566;28;20036;-74
2023/07/20 07:02:06;;;;;;;2.10;1.48;;;22.00;58.60;;;;;;5087479;28;20032;-74
2023/07/20 07:04:32;;;;;;;1.83;1.30;;;22.20;58.30;;;;;;5090526;28;20032;-71
2023/07/20 07:06:59;;;;;;;1.52;1.42;;;22.50;58.00;;;;;;5089553;28;20051;-71
2023/07/20 07:09:26;;;;;;;1.35;1.23;;;22.80;57.40;;;;;;5092244;28;20486;-70
2023/07/20 07:11:53;;;;;;;2.05;1.27;;;22.80;56.90;;;;;;5084473;28;20166;-70
2023/07/20 07:14:21;;;;;;;1.98;1.30;;;22.90;56.80;;;;;;5089199;28;20024;-69
2023/07/20 07:16:48;;;;;;;1.73;1.20;;;23.20;56.80;;;;;;5092864;28;20661;-71
2023/07/20 07:19:20;;;;;;;1.90;1.40;;;23.60;56.40;;;;;;5082530;28;20217;-68
2023/07/20 07:21:48;;;;;;;1.95;1.10;;;24.20;56.10;;;;;;5085291;28;20032;-69
2023/07/20 07:24:15;;;;;;;1.65;1.20;;;24.50;55.30;;;;;;5087433;28;20039;-73
2023/07/20 07:26:41;;;;;;;1.58;1.10;;;24.70;55.00;;;;;;5091051;28;20039;-71
2023/07/20 07:29:07;;;;;;;3.22;1.30;;;24.80;54.70;;;;;;5081760;28;20032;-70
2023/07/20 07:31:35;;;;;;;3.92;1.10;;;25.10;54.60;;;;;;5081582;28;20023;-70
2023/07/20 07:34:02;;;;;;;3.88;1.20;;;25.50;53.70;;;;;;5085694;28;20044;-70
2023/07/20 07:36:30;;;;;;;1.20;1.10;;;25.80;53.00;;;;;;5089591;28;20127;-70
2023/07/20 07:38:57;;;;;;;1.98;1.15;;;25.90;52.70;;;;;;5076061;28;20032;-69
2023/07/20 07:41:23;;;;;;;2.50;1.00;;;26.10;52.60;;;;;;5080710;28;20140;-69
2023/07/20 07:43:50;;;;;;;3.20;1.10;;;26.20;52.40;;;;;;5076242;28;20042;-70
2023/07/20 07:46:16;;;;;;;2.22;0.90;;;26.40;52.20;;;;;;5079151;28;20047;-75
2023/07/20 07:48:45;;;;;;;1.75;1.15;;;26.60;51.80;;;;;;5083522;28;20035;-71
2023/07/20 07:51:13;;;;;;;2.58;1.10;;;27.10;50.70;;;;;;5073160;28;20170;-69
2023/07/20 07:53:40;;;;;;;1.23;1.10;;;27.70;49.40;;;;;;5077595;28;20036;-69
2023/07/20 07:56:07;;;;;;;1.60;1.20;;;28.20;48.40;;;;;;5072519;28;20416;-69
2023/07/20 07:58:34;;;;;;;1.63;0.80;;;28.50;47.60;;;;;;5069397;28;20032;-69
2023/07/20 08:01:00;;;;;;;3.50;1.92;;;28.80;47.00;;;;;;5079140;28;20809;-69
2023/07/20 08:03:26;;;;;;;1.33;1.00;;;29.00;46.50;;;;;;5083084;28;20039;-69
2023/07/20 08:05:55;;;;;;;2.05;1.33;;;28.80;46.20;;;;;;5079097;28;20024;-70
2023/07/20 08:08:22;;;;;;;10.65;6.20;;;28.70;46.30;;;;;;5087292;28;20043;-70
2023/07/20 08:10:48;;;;;;;9.02;5.05;;;28.50;46.60;;;;;;5092139;28;20024;-69
2023/07/20 08:13:15;;;;;;;3.75;2.38;;;28.30;46.80;;;;;;5080233;28;20651;-69
2023/07/20 08:15:49;;;;;;;11.90;6.50;;;28.00;46.80;;;;;;5091253;28;20778;-70
2023/07/20 08:18:15;;;;;;;7.53;5.22;;;27.80;46.80;;;;;;5092575;28;20400;-72
2023/07/20 08:20:44;;;;;;;10.00;5.55;;;27.50;47.20;;;;;;5085269;28;20034;-68
2023/07/20 08:23:19;;;;;;;6.07;3.58;;;27.30;47.30;;;;;;5095053;28;20126;-72
2023/07/20 08:25:46;;;;;;;4.15;3.00;;;27.20;47.60;;;;;;5094622;28;20036;-69
2023/07/20 08:28:16;;;;;;;4.20;3.10;;;27.10;47.60;;;;;;5089966;28;20461;-69
2023/07/20 08:30:44;;;;;;;3.33;2.80;;;27.10;47.50;;;;;;5098952;28;20038;-73
2023/07/20 08:33:12;;;;;;;4.18;2.60;;;27.10;47.60;;;;;;5084416;28;20040;-70
2023/07/20 08:35:38;;;;;;;3.03;2.60;;;27.00;48.10;;;;;;5083590;28;20067;-74
2023/07/20 08:38:04;;;;;;;4.07;2.47;;;27.00;47.40;;;;;;5096644;28;20538;-71
2023/07/20 08:40:32;;;;;;;3.95;2.45;;;27.00;47.40;;;;;;5085581;28;20542;-69
2023/07/20 08:43:00;;;;;;;3.65;2.13;;;27.00;47.30;;;;;;5070917;28;20375;-69
2023/07/20 08:45:29;;;;;;;4.07;1.92;;;26.90;47.10;;;;;;5063526;28;20139;-71
2023/07/20 08:47:58;;;;;;;2.70;1.73;;;27.00;47.10;;;;;;5084429;28;20093;-69
2023/07/20 08:50:29;;;;;;;2.28;2.00;;;27.00;46.90;;;;;;5090710;28;20238;-70
2023/07/20 08:52:57;;;;;;;3.17;1.88;;;27.00;47.00;;;;;;5098674;27;20098;-72
2023/07/20 08:55:27;;;;;;;3.28;1.90;;;27.00;46.90;;;;;;5080222;28;20082;-70
2023/07/20 08:57:55;;;;;;;2.08;1.75;;;27.10;46.90;;;;;;5091122;28;20126;-73
2023/07/20 09:00:25;;;;;;;2.53;1.50;;;27.10;46.70;;;;;;5083846;28;20039;-70
2023/07/20 09:03:02;;;;;;;2.58;1.63;;;27.20;46.60;;;;;;5092576;28;20076;-68
2023/07/20 09:05:28;;;;;;;3.35;1.48;;;27.40;46.60;;;;;;5089138;28;20036;-70
2023/07/20 09:07:58;;;;;;;2.03;1.50;;;27.50;46.50;;;;;;5093165;28;20032;-71
2023/07/20 09:10:30;;;;;;;4.55;1.48;;;27.60;46.30;;;;;;5076384;28;20074;-69
2023/07/20 09:12:57;;;;;;;2.13;1.55;;;27.70;46.20;;;;;;5070466;28;20036;-71
2023/07/20 09:15:23;;;;;;;1.40;1.20;;;27.80;46.00;;;;;;5072426;28;20039;-70
2023/07/20 09:17:50;;;;;;;3.35;1.05;;;27.90;45.90;;;;;;5081087;28;20040;-70
2023/07/20 09:20:18;;;;;;;2.10;1.40;;;27.90;45.60;;;;;;5067215;28;20137;-71
2023/07/20 09:22:45;;;;;;;2.15;1.17;;;28.00;46.20;;;;;;5077779;28;20036;-69
2023/07/20 09:25:22;;;;;;;3.20;1.20;;;27.80;45.50;;;;;;5077681;28;20028;-70
2023/07/20 09:27:54;;;;;;;1.35;1.00;;;27.70;45.40;;;;;;5081850;28;20035;-70
2023/07/20 09:30:25;;;;;;;1.42;1.10;;;27.80;45.50;;;;;;5080900;28;20031;-71
2023/07/20 09:33:00;;;;;;;1.65;1.30;;;27.80;45.30;;;;;;5092478;28;20134;-68
2023/07/20 09:35:29;;;;;;;1.35;1.10;;;27.90;45.20;;;;;;5073168;28;20128;-69
2023/07/20 09:38:05;;;;;;;1.83;1.38;;;28.00;45.10;;;;;;5081057;28;20031;-70
2023/07/20 09:40:38;;;;;;;3.35;1.23;;;28.10;45.10;;;;;;5085457;28;20038;-70
2023/07/20 09:43:09;;;;;;;1.58;1.40;;;28.10;44.80;;;;;;5070872;28;20043;-69
2023/07/20 09:45:40;;;;;;;1.75;1.17;;;28.20;44.80;;;;;;5079974;28;20551;-71
2023/07/20 09:48:07;;;;;;;2.30;1.63;;;28.40;44.70;;;;;;5082695;28;20032;-70
2023/07/20 09:50:34;;;;;;;1.63;1.33;;;28.50;44.60;;;;;;5074073;28;20051;-71
2023/07/20 09:53:04;;;;;;;1.90;1.10;;;28.60;44.30;;;;;;5078002;28;20128;-71
2023/07/20 09:55:32;;;;;;;2.22;1.45;;;28.80;44.20;;;;;;5078355;28;20044;-70
2023/07/20 09:58:00;;;;;;;2.17;1.30;;;28.90;44.00;;;;;;5074254;28;20040;-72
2023/07/20 10:00:26;;;;;;;1.75;1.00;;;29.10;44.00;;;;;;5088544;28;20039;-69
2023/07/20 10:02:54;;;;;;;1.58;1.48;;;29.20;43.90;;;;;;5088964;28;20122;-71
2023/07/20 10:05:20;;;;;;;1.52;1.35;;;29.40;43.80;;;;;;5091088;28;20127;-70
2023/07/20 10:07:49;;;;;;;1.05;0.98;;;29.60;43.50;;;;;;5091364;28;20039;-69
2023/07/20 10:10:17;;;;;;;1.13;0.90;;;29.70;43.30;;;;;;5080312;28;20035;-69
2023/07/20 10:12:50;;;;;;;1.58;1.13;;;29.90;43.10;;;;;;5081148;28;20502;-69
2023/07/20 10:15:47;;;;;;;0.77;0.77;;;30.00;43.00;;;;;;5070100;28;20170;-70
2023/07/20 10:18:23;;;;;;;1.98;1.27;;;30.00;42.70;;;;;;5076690;28;20048;-71
2023/07/20 10:20:55;;;;;;;1.20;0.88;;;30.00;42.70;;;;;;5081677;28;20712;-72
2023/07/20 10:23:23;;;;;;;1.80;1.02;;;30.10;42.80;;;;;;5073554;28;20044;-70
2023/07/20 10:25:50;;;;;;;1.38;1.08;;;30.20;42.60;;;;;;5073211;28;20116;-74
2023/07/20 10:28:16;;;;;;;1.88;0.98;;;30.20;42.30;;;;;;5079711;28;20039;-72
2023/07/20 10:30:46;;;;;;;1.73;1.13;;;30.10;42.00;;;;;;5104537;28;20035;-70
2023/07/20 10:33:16;;;;;;;1.08;0.98;;;29.90;42.00;;;;;;5090420;28;20043;-70
2023/07/20 10:35:56;;;;;;;0.80;0.80;;;29.80;42.00;;;;;;5096132;28;20043;-72
2023/07/20 10:38:52;;;;;;;1.23;1.10;;;29.80;42.00;;;;;;5084193;28;20416;-73
2023/07/20 10:41:29;;;;;;;1.35;0.82;;;29.90;42.00;;;;;;5079209;28;20436;-69
2023/07/20 10:44:04;;;;;;;1.20;1.10;;;30.00;41.80;;;;;;5078005;28;20036;-71
2023/07/20 10:46:39;;;;;;;2.75;1.05;;;30.10;41.50;;;;;;5083544;28;20028;-72
2023/07/20 10:49:08;;;;;;;2.42;1.17;;;30.10;41.40;;;;;;5090733;28;20034;-69
2023/07/20 10:51:41;;;;;;;1.65;0.90;;;30.00;41.70;;;;;;5084923;28;20062;-72
2023/07/20 10:54:16;;;;;;;2.03;1.10;;;30.10;41.90;;;;;;5086375;28;20044;-69
2023/07/20 10:56:48;;;;;;;1.88;0.88;;;30.20;41.90;;;;;;5072916;28;20318;-70
2023/07/20 10:59:22;;;;;;;0.85;0.85;;;30.40;41.60;;;;;;5073817;28;20028;-70
2023/07/20 11:02:01;;;;;;;1.15;1.05;;;30.70;41.30;;;;;;5080820;28;20039;-69
2023/07/20 11:04:46;;;;;;;1.10;0.77;;;30.90;41.00;;;;;;5075232;28;20752;-71
2023/07/20 11:07:39;;;;;;;0.70;0.68;;;31.10;40.30;;;;;;5080558;28;20036;-71
2023/07/20 11:10:15;;;;;;;1.35;1.02;;;31.40;40.30;;;;;;5074325;28;20081;-72
2023/07/20 11:12:41;;;;;;;1.48;1.08;;;31.50;40.30;;;;;;5074271;28;20047;-72
2023/07/20 11:15:13;;;;;;;1.48;1.20;;;31.70;40.30;;;;;;5075029;28;20066;-69
2023/07/20 11:17:39;;;;;;;1.70;1.17;;;31.70;40.00;;;;;;5084888;28;20031;-69
2023/07/20 11:20:13;;;;;;;1.33;0.80;;;31.80;39.80;;;;;;5088184;28;20675;-70
2023/07/20 11:22:41;;;;;;;1.65;1.52;;;31.80;39.50;;;;;;5092928;28;20032;-70
2023/07/20 11:25:10;;;;;;;1.70;0.90;;;32.00;39.70;;;;;;5090549;28;20031;-69
2023/07/20 11:27:46;;;;;;;1.10;0.93;;;32.00;40.10;;;;;;5094929;28;20299;-71
2023/07/20 11:30:18;;;;;;;1.98;1.15;;;32.20;39.30;;;;;;5077591;28;20771;-74
2023/07/20 11:32:48;;;;;;;1.20;0.90;;;32.30;38.90;;;;;;5078371;28;20543;-71
2023/07/20 11:35:14;;;;;;;4.20;1.10;;;32.50;38.90;;;;;;5078767;28;20143;-68
2023/07/20 11:37:41;;;;;;;1.65;1.15;;;32.60;38.70;;;;;;5087763;28;20035;-69
2023/07/20 11:40:10;;;;;;;1.58;0.65;;;32.50;38.60;;;;;;5086719;28;20288;-72
2023/07/20 11:42:36;;;;;;;0.85;0.85;;;32.50;38.60;;;;;;5077016;28;20183;-70
2023/07/20 11:45:05;;;;;;;1.38;0.80;;;32.40;38.70;;;;;;5067803;28;20081;-70
2023/07/20 11:47:31;;;;;;;1.98;1.20;;;32.40;38.90;;;;;;5080634;28;20094;-70
2023/07/20 11:50:03;;;;;;;0.80;0.65;;;32.40;38.90;;;;;;5073698;28;20039;-70
2023/07/20 11:52:33;;;;;;;1.73;1.40;;;32.30;38.40;;;;;;5080228;28;20078;-70
2023/07/20 11:54:59;;;;;;;1.95;0.98;;;32.20;38.50;;;;;;5082845;28;20085;-69
2023/07/20 11:57:26;;;;;;;4.00;1.73;;;32.10;38.50;;;;;;5066603;28;20044;-70
2023/07/20 11:59:57;;;;;;;1.73;1.17;;;32.10;38.60;;;;;;5077713;28;20058;-69
2023/07/20 12:02:26;;;;;;;1.77;1.00;;;32.10;38.60;;;;;;5072033;28;20101;-70
2023/07/20 12:04:54;;;;;;;1.85;0.90;;;32.10;38.60;;;;;;5077151;28;20036;-73
2023/07/20 12:07:21;;;;;;;1.92;1.33;;;32.30;38.50;;;;;;5081556;28;20040;-70
2023/07/20 12:10:08;;;;;;;1.25;0.95;;;32.40;38.10;;;;;;5080950;28;20341;-69
2023/07/20 12:12:44;;;;;;;1.63;1.05;;;32.60;37.40;;;;;;5085346;28;20046;-72
2023/07/20 12:15:19;;;;;;;1.58;1.02;;;32.80;37.50;;;;;;5081931;28;20071;-69
2023/07/20 12:17:45;;;;;;;1.08;0.98;;;33.10;37.40;;;;;;5072400;28;20048;-70
2023/07/20 12:20:35;;;;;;;2.08;1.00;;;33.40;37.30;;;;;;5075776;28;20039;-73
2023/07/20 12:23:20;;;;;;;1.23;0.93;;;33.80;37.20;;;;;;5084500;28;20037;-70
2023/07/20 12:25:47;;;;;;;1.00;0.90;;;33.90;36.60;;;;;;5089627;28;20031;-73
2023/07/20 12:28:18;;;;;;;1.15;1.05;;;34.00;36.80;;;;;;5088181;28;20107;-71
2023/07/20 12:30:56;;;;;;;1.40;0.93;;;34.00;36.60;;;;;;5089465;28;20031;-70
2023/07/20 12:33:23;;;;;;;2.15;1.10;;;33.80;36.70;;;;;;5085578;28;20047;-68
2023/07/20 12:35:55;;;;;;;1.73;1.20;;;33.70;36.60;;;;;;5082577;27;20044;-73
2023/07/20 12:38:31;;;;;;;1.55;1.13;;;33.50;36.70;;;;;;5072296;28;20119;-70
2023/07/20 12:40:58;;;;;;;1.02;0.93;;;33.30;37.40;;;;;;5089827;28;20763;-73
2023/07/20 12:43:24;;;;;;;1.27;1.17;;;33.10;36.80;;;;;;5081800;28;20046;-71
2023/07/20 12:45:54;;;;;;;3.08;1.35;;;33.00;37.00;;;;;;5079640;28;20036;-72
2023/07/20 12:48:23;;;;;;;1.75;1.35;;;32.80;37.10;;;;;;5086614;28;20039;-75
2023/07/20 12:50:49;;;;;;;1.30;1.20;;;32.60;37.30;;;;;;5080172;28;20134;-70
2023/07/20 12:53:22;;;;;;;1.48;1.38;;;32.50;37.40;;;;;;5082404;28;20036;-70
2023/07/20 12:55:48;;;;;;;1.95;1.42;;;32.30;38.10;;;;;;5079786;28;20040;-72